sensor_id;sensor_type;location;lat;lon;timestamp;P1;durP1;ratioP1;P2;durP2;ratioP2
9424;SDS011;17139;52.140;11.636;2022-11-04T00:00:52;3.57;;;3.20;;
9424;SDS011;17139;52.140;11.636;2022-11-04T00:03:19;3.30;;;3.07;;
9424;SDS011;17139;52.140;11.636;2022-11-04T00:05:46;3.80;;;3.37;;
9424;SDS011;17139;52.140;11.636;2022-11-04T00:08:13;3.57;;;3.27;;
9424;SDS011;17139;52.140;11.636;2022-11-04T00:10:53;3.23;;;3.00;;
9424;SDS011;17139;52.140;11.636;2022-11-04T00:13:38;3.87;;;2.90;;
9424;SDS011;17139;52.140;11.636;2022-11-04T00:16:05;3.23;;;3.00;;
9424;SDS011;17139;52.140;11.636;2022-11-04T00:18:49;2.73;;;2.60;;
9424;SDS011;17139;52.140;11.636;2022-11-04T00:21:16;3.67;;;3.37;;
9424;SDS011;17139;52.140;11.636;2022-11-04T00:24:00;2.83;;;2.73;;
9424;SDS011;17139;52.140;11.636;2022-11-04T00:26:46;3.70;;;3.43;;
9424;SDS011;17139;52.140;11.636;2022-11-04T00:29:30;3.93;;;3.57;;
9424;SDS011;17139;52.140;11.636;2022-11-04T00:31:57;5.93;;;4.03;;
9424;SDS011;17139;52.140;11.636;2022-11-04T00:34:42;5.32;;;4.93;;
9424;SDS011;17139;52.140;11.636;2022-11-04T00:37:09;3.43;;;3.33;;
9424;SDS011;17139;52.140;11.636;2022-11-04T00:39:36;3.90;;;3.70;;
9424;SDS011;17139;52.140;11.636;2022-11-04T00:42:05;3.43;;;3.23;;
9424;SDS011;17139;52.140;11.636;2022-11-04T00:44:32;3.23;;;2.97;;
9424;SDS011;17139;52.140;11.636;2022-11-04T00:46:59;3.17;;;2.90;;
9424;SDS011;17139;52.140;11.636;2022-11-04T00:49:26;3.50;;;3.33;;
9424;SDS011;17139;52.140;11.636;2022-11-04T00:51:53;3.03;;;2.80;;
9424;SDS011;17139;52.140;11.636;2022-11-04T00:54:20;3.43;;;3.23;;
9424;SDS011;17139;52.140;11.636;2022-11-04T00:56:47;3.23;;;3.03;;
9424;SDS011;17139;52.140;11.636;2022-11-04T00:59:16;3.47;;;3.17;;
9424;SDS011;17139;52.140;11.636;2022-11-04T01:01:43;3.07;;;2.87;;
9424;SDS011;17139;52.140;11.636;2022-11-04T01:04:10;3.17;;;2.97;;
9424;SDS011;17139;52.140;11.636;2022-11-04T01:06:37;3.93;;;3.00;;
9424;SDS011;17139;52.140;11.636;2022-11-04T01:09:05;4.57;;;3.20;;
9424;SDS011;17139;52.140;11.636;2022-11-04T01:11:34;4.10;;;3.43;;
9424;SDS011;17139;52.140;11.636;2022-11-04T01:14:01;3.20;;;3.00;;
9424;SDS011;17139;52.140;11.636;2022-11-04T01:16:29;5.20;;;4.80;;
9424;SDS011;17139;52.140;11.636;2022-11-04T01:18:56;3.53;;;3.33;;
9424;SDS011;17139;52.140;11.636;2022-11-04T01:21:24;4.03;;;3.50;;
9424;SDS011;17139;52.140;11.636;2022-11-04T01:23:50;3.83;;;3.43;;
9424;SDS011;17139;52.140;11.636;2022-11-04T01:26:18;3.57;;;3.27;;
9424;SDS011;17139;52.140;11.636;2022-11-04T01:28:47;4.13;;;3.90;;
9424;SDS011;17139;52.140;11.636;2022-11-04T01:31:15;3.40;;;3.20;;
9424;SDS011;17139;52.140;11.636;2022-11-04T01:33:46;6.20;;;3.43;;
9424;SDS011;17139;52.140;11.636;2022-11-04T01:36:14;3.70;;;3.50;;
9424;SDS011;17139;52.140;11.636;2022-11-04T01:38:41;3.40;;;3.30;;
9424;SDS011;17139;52.140;11.636;2022-11-04T01:41:08;3.57;;;3.40;;
9424;SDS011;17139;52.140;11.636;2022-11-04T01:43:42;3.53;;;3.33;;
9424;SDS011;17139;52.140;11.636;2022-11-04T01:46:11;4.83;;;3.00;;
9424;SDS011;17139;52.140;11.636;2022-11-04T01:48:48;4.90;;;3.83;;
9424;SDS011;17139;52.140;11.636;2022-11-04T01:51:15;5.83;;;3.53;;
9424;SDS011;17139;52.140;11.636;2022-11-04T01:53:42;6.18;;;5.65;;
9424;SDS011;17139;52.140;11.636;2022-11-04T01:56:10;7.77;;;4.43;;
9424;SDS011;17139;52.140;11.636;2022-11-04T01:58:40;8.35;;;4.45;;
9424;SDS011;17139;52.140;11.636;2022-11-04T02:01:11;3.67;;;3.33;;
9424;SDS011;17139;52.140;11.636;2022-11-04T02:03:40;3.77;;;3.57;;
9424;SDS011;17139;52.140;11.636;2022-11-04T02:06:13;3.60;;;3.40;;
9424;SDS011;17139;52.140;11.636;2022-11-04T02:08:42;4.27;;;3.97;;
9424;SDS011;17139;52.140;11.636;2022-11-04T02:11:09;5.53;;;3.23;;
9424;SDS011;17139;52.140;11.636;2022-11-04T02:13:56;3.13;;;3.03;;
9424;SDS011;17139;52.140;11.636;2022-11-04T02:16:24;4.77;;;4.30;;
9424;SDS011;17139;52.140;11.636;2022-11-04T02:18:59;3.30;;;3.20;;
9424;SDS011;17139;52.140;11.636;2022-11-04T02:21:46;4.07;;;3.77;;
9424;SDS011;17139;52.140;11.636;2022-11-04T02:24:49;6.30;;;3.57;;
9424;SDS011;17139;52.140;11.636;2022-11-04T02:27:54;3.67;;;3.57;;
9424;SDS011;17139;52.140;11.636;2022-11-04T02:30:42;3.73;;;3.53;;
9424;SDS011;17139;52.140;11.636;2022-11-04T02:33:16;4.97;;;3.63;;
9424;SDS011;17139;52.140;11.636;2022-11-04T02:35:49;6.55;;;5.95;;
9424;SDS011;17139;52.140;11.636;2022-11-04T02:38:29;5.07;;;4.67;;
9424;SDS011;17139;52.140;11.636;2022-11-04T02:41:05;6.80;;;6.10;;
9424;SDS011;17139;52.140;11.636;2022-11-04T02:43:40;4.63;;;4.33;;
9424;SDS011;17139;52.140;11.636;2022-11-04T02:46:17;3.80;;;3.60;;
9424;SDS011;17139;52.140;11.636;2022-11-04T02:48:51;3.50;;;3.30;;
9424;SDS011;17139;52.140;11.636;2022-11-04T02:51:21;4.07;;;3.73;;
9424;SDS011;17139;52.140;11.636;2022-11-04T02:53:54;3.53;;;3.33;;
9424;SDS011;17139;52.140;11.636;2022-11-04T02:56:27;4.60;;;3.73;;
9424;SDS011;17139;52.140;11.636;2022-11-04T02:58:57;4.47;;;3.80;;
9424;SDS011;17139;52.140;11.636;2022-11-04T03:01:31;3.80;;;3.60;;
9424;SDS011;17139;52.140;11.636;2022-11-04T03:04:04;3.53;;;3.33;;
9424;SDS011;17139;52.140;11.636;2022-11-04T03:06:34;6.43;;;3.87;;
9424;SDS011;17139;52.140;11.636;2022-11-04T03:09:01;4.20;;;3.80;;
9424;SDS011;17139;52.140;11.636;2022-11-04T03:11:30;4.50;;;3.93;;
9424;SDS011;17139;52.140;11.636;2022-11-04T03:13:58;3.80;;;3.60;;
9424;SDS011;17139;52.140;11.636;2022-11-04T03:16:29;4.00;;;3.70;;
9424;SDS011;17139;52.140;11.636;2022-11-04T03:19:06;4.20;;;3.80;;
9424;SDS011;17139;52.140;11.636;2022-11-04T03:21:40;4.67;;;4.33;;
9424;SDS011;17139;52.140;11.636;2022-11-04T03:24:13;6.47;;;5.97;;
9424;SDS011;17139;52.140;11.636;2022-11-04T03:26:40;4.67;;;4.37;;
9424;SDS011;17139;52.140;11.636;2022-11-04T03:29:13;4.10;;;3.70;;
9424;SDS011;17139;52.140;11.636;2022-11-04T03:31:48;4.77;;;4.47;;
9424;SDS011;17139;52.140;11.636;2022-11-04T03:34:24;3.93;;;3.73;;
9424;SDS011;17139;52.140;11.636;2022-11-04T03:36:51;4.57;;;4.17;;
9424;SDS011;17139;52.140;11.636;2022-11-04T03:39:18;3.93;;;3.73;;
9424;SDS011;17139;52.140;11.636;2022-11-04T03:41:46;3.90;;;3.60;;
9424;SDS011;17139;52.140;11.636;2022-11-04T03:44:17;6.33;;;4.67;;
9424;SDS011;17139;52.140;11.636;2022-11-04T03:46:45;3.60;;;3.33;;
9424;SDS011;17139;52.140;11.636;2022-11-04T03:49:14;4.03;;;3.83;;
9424;SDS011;17139;52.140;11.636;2022-11-04T03:51:41;3.47;;;3.33;;
9424;SDS011;17139;52.140;11.636;2022-11-04T03:54:08;5.57;;;3.77;;
9424;SDS011;17139;52.140;11.636;2022-11-04T03:59:39;6.60;;;6.10;;
9424;SDS011;17139;52.140;11.636;2022-11-04T04:02:30;4.27;;;4.07;;
9424;SDS011;17139;52.140;11.636;2022-11-04T04:05:08;5.70;;;5.23;;
9424;SDS011;17139;52.140;11.636;2022-11-04T04:07:40;5.20;;;4.13;;
9424;SDS011;17139;52.140;11.636;2022-11-04T04:10:11;3.90;;;3.60;;
9424;SDS011;17139;52.140;11.636;2022-11-04T04:13:00;4.07;;;3.80;;
9424;SDS011;17139;52.140;11.636;2022-11-04T04:15:33;4.10;;;3.80;;
9424;SDS011;17139;52.140;11.636;2022-11-04T04:18:09;4.50;;;4.13;;
9424;SDS011;17139;52.140;11.636;2022-11-04T04:20:40;3.47;;;3.27;;
9424;SDS011;17139;52.140;11.636;2022-11-04T04:23:12;4.23;;;3.80;;
9424;SDS011;17139;52.140;11.636;2022-11-04T04:26:02;4.03;;;3.70;;
9424;SDS011;17139;52.140;11.636;2022-11-04T04:28:55;3.87;;;3.67;;
9424;SDS011;17139;52.140;11.636;2022-11-04T04:31:23;3.90;;;3.70;;
9424;SDS011;17139;52.140;11.636;2022-11-04T04:34:10;4.07;;;3.77;;
9424;SDS011;17139;52.140;11.636;2022-11-04T04:36:40;10.17;;;3.70;;
9424;SDS011;17139;52.140;11.636;2022-11-04T04:39:11;5.10;;;4.00;;
9424;SDS011;17139;52.140;11.636;2022-11-04T04:41:59;3.97;;;3.53;;
9424;SDS011;17139;52.140;11.636;2022-11-04T04:44:44;4.67;;;4.07;;
9424;SDS011;17139;52.140;11.636;2022-11-04T04:47:29;6.03;;;5.38;;
9424;SDS011;17139;52.140;11.636;2022-11-04T04:50:03;4.13;;;3.73;;
9424;SDS011;17139;52.140;11.636;2022-11-04T04:52:32;4.80;;;3.87;;
9424;SDS011;17139;52.140;11.636;2022-11-04T04:55:03;3.80;;;3.60;;
9424;SDS011;17139;52.140;11.636;2022-11-04T04:57:31;3.73;;;3.43;;
9424;SDS011;17139;52.140;11.636;2022-11-04T04:59:58;3.90;;;3.60;;
9424;SDS011;17139;52.140;11.636;2022-11-04T05:02:25;3.63;;;3.43;;
9424;SDS011;17139;52.140;11.636;2022-11-04T05:04:52;4.40;;;4.03;;
9424;SDS011;17139;52.140;11.636;2022-11-04T05:07:20;3.60;;;3.40;;
9424;SDS011;17139;52.140;11.636;2022-11-04T05:09:48;5.77;;;3.10;;
9424;SDS011;17139;52.140;11.636;2022-11-04T05:12:16;3.27;;;2.80;;
9424;SDS011;17139;52.140;11.636;2022-11-04T05:14:43;4.33;;;4.00;;
9424;SDS011;17139;52.140;11.636;2022-11-04T05:17:10;4.13;;;3.50;;
9424;SDS011;17139;52.140;11.636;2022-11-04T05:19:37;3.27;;;3.07;;
9424;SDS011;17139;52.140;11.636;2022-11-04T05:22:05;4.63;;;3.67;;
9424;SDS011;17139;52.140;11.636;2022-11-04T05:24:32;6.60;;;5.95;;
9424;SDS011;17139;52.140;11.636;2022-11-04T05:27:00;3.80;;;3.60;;
9424;SDS011;17139;52.140;11.636;2022-11-04T05:29:27;5.68;;;5.03;;
9424;SDS011;17139;52.140;11.636;2022-11-04T05:31:54;4.13;;;3.70;;
9424;SDS011;17139;52.140;11.636;2022-11-04T05:34:22;4.33;;;4.13;;
9424;SDS011;17139;52.140;11.636;2022-11-04T05:36:49;3.87;;;3.53;;
9424;SDS011;17139;52.140;11.636;2022-11-04T05:39:16;3.97;;;3.73;;
9424;SDS011;17139;52.140;11.636;2022-11-04T05:41:43;3.27;;;3.07;;
9424;SDS011;17139;52.140;11.636;2022-11-04T05:44:11;4.07;;;3.77;;
9424;SDS011;17139;52.140;11.636;2022-11-04T05:46:39;3.90;;;3.60;;
9424;SDS011;17139;52.140;11.636;2022-11-04T05:49:07;3.43;;;3.20;;
9424;SDS011;17139;52.140;11.636;2022-11-04T05:51:35;3.27;;;3.07;;
9424;SDS011;17139;52.140;11.636;2022-11-04T05:54:02;3.53;;;3.23;;
9424;SDS011;17139;52.140;11.636;2022-11-04T05:56:29;4.03;;;3.73;;
9424;SDS011;17139;52.140;11.636;2022-11-04T05:58:56;3.70;;;3.43;;
9424;SDS011;17139;52.140;11.636;2022-11-04T06:01:30;4.00;;;3.80;;
9424;SDS011;17139;52.140;11.636;2022-11-04T06:03:58;4.00;;;3.80;;
9424;SDS011;17139;52.140;11.636;2022-11-04T06:06:27;6.93;;;6.30;;
9424;SDS011;17139;52.140;11.636;2022-11-04T06:08:56;4.83;;;4.27;;
9424;SDS011;17139;52.140;11.636;2022-11-04T06:11:24;5.40;;;5.05;;
9424;SDS011;17139;52.140;11.636;2022-11-04T06:13:52;4.70;;;4.40;;
9424;SDS011;17139;52.140;11.636;2022-11-04T06:16:19;5.27;;;3.70;;
9424;SDS011;17139;52.140;11.636;2022-11-04T06:18:48;3.47;;;3.27;;
9424;SDS011;17139;52.140;11.636;2022-11-04T06:21:21;3.83;;;3.63;;
9424;SDS011;17139;52.140;11.636;2022-11-04T06:23:51;3.70;;;3.50;;
9424;SDS011;17139;52.140;11.636;2022-11-04T06:26:20;4.20;;;3.77;;
9424;SDS011;17139;52.140;11.636;2022-11-04T06:28:47;3.30;;;3.20;;
9424;SDS011;17139;52.140;11.636;2022-11-04T06:31:14;3.70;;;3.40;;
9424;SDS011;17139;52.140;11.636;2022-11-04T06:33:42;4.50;;;3.60;;
9424;SDS011;17139;52.140;11.636;2022-11-04T06:36:11;3.50;;;3.30;;
9424;SDS011;17139;52.140;11.636;2022-11-04T06:38:38;3.00;;;2.80;;
9424;SDS011;17139;52.140;11.636;2022-11-04T06:41:06;6.10;;;2.93;;
9424;SDS011;17139;52.140;11.636;2022-11-04T06:43:35;3.53;;;3.23;;
9424;SDS011;17139;52.140;11.636;2022-11-04T06:46:02;2.97;;;2.77;;
9424;SDS011;17139;52.140;11.636;2022-11-04T06:48:29;2.60;;;2.50;;
9424;SDS011;17139;52.140;11.636;2022-11-04T06:50:57;5.68;;;3.60;;
9424;SDS011;17139;52.140;11.636;2022-11-04T06:53:26;3.17;;;2.97;;
9424;SDS011;17139;52.140;11.636;2022-11-04T06:55:59;3.83;;;2.63;;
9424;SDS011;17139;52.140;11.636;2022-11-04T06:58:28;8.30;;;5.22;;
9424;SDS011;17139;52.140;11.636;2022-11-04T07:00:56;3.13;;;2.93;;
9424;SDS011;17139;52.140;11.636;2022-11-04T07:03:23;2.37;;;2.27;;
9424;SDS011;17139;52.140;11.636;2022-11-04T07:05:50;2.33;;;2.23;;
9424;SDS011;17139;52.140;11.636;2022-11-04T07:08:17;2.63;;;2.53;;
9424;SDS011;17139;52.140;11.636;2022-11-04T07:10:46;2.40;;;2.30;;
9424;SDS011;17139;52.140;11.636;2022-11-04T07:13:13;2.50;;;2.40;;
9424;SDS011;17139;52.140;11.636;2022-11-04T07:15:40;2.03;;;2.00;;
9424;SDS011;17139;52.140;11.636;2022-11-04T07:18:07;2.40;;;2.30;;
9424;SDS011;17139;52.140;11.636;2022-11-04T07:20:35;1.90;;;1.90;;
9424;SDS011;17139;52.140;11.636;2022-11-04T07:23:02;2.00;;;1.90;;
9424;SDS011;17139;52.140;11.636;2022-11-04T07:25:29;2.90;;;2.80;;
9424;SDS011;17139;52.140;11.636;2022-11-04T07:27:57;2.57;;;2.37;;
9424;SDS011;17139;52.140;11.636;2022-11-04T07:30:24;1.90;;;1.90;;
9424;SDS011;17139;52.140;11.636;2022-11-04T07:32:51;1.67;;;1.67;;
9424;SDS011;17139;52.140;11.636;2022-11-04T07:35:18;3.17;;;2.97;;
9424;SDS011;17139;52.140;11.636;2022-11-04T07:37:46;2.43;;;2.33;;
9424;SDS011;17139;52.140;11.636;2022-11-04T07:40:12;2.70;;;2.60;;
9424;SDS011;17139;52.140;11.636;2022-11-04T07:42:39;2.00;;;2.00;;
9424;SDS011;17139;52.140;11.636;2022-11-04T07:45:08;1.80;;;1.70;;
9424;SDS011;17139;52.140;11.636;2022-11-04T07:47:35;2.23;;;2.13;;
9424;SDS011;17139;52.140;11.636;2022-11-04T07:50:03;1.77;;;1.77;;
9424;SDS011;17139;52.140;11.636;2022-11-04T07:52:30;1.83;;;1.77;;
9424;SDS011;17139;52.140;11.636;2022-11-04T07:54:57;2.03;;;1.93;;
9424;SDS011;17139;52.140;11.636;2022-11-04T07:57:24;1.90;;;1.80;;
9424;SDS011;17139;52.140;11.636;2022-11-04T07:59:51;1.30;;;1.30;;
9424;SDS011;17139;52.140;11.636;2022-11-04T08:02:19;1.37;;;1.37;;
9424;SDS011;17139;52.140;11.636;2022-11-04T08:04:47;1.20;;;1.20;;
9424;SDS011;17139;52.140;11.636;2022-11-04T08:07:15;1.30;;;1.30;;
9424;SDS011;17139;52.140;11.636;2022-11-04T08:09:42;1.60;;;1.50;;
9424;SDS011;17139;52.140;11.636;2022-11-04T08:12:09;1.43;;;1.43;;
9424;SDS011;17139;52.140;11.636;2022-11-04T08:14:36;1.73;;;1.60;;
9424;SDS011;17139;52.140;11.636;2022-11-04T08:17:03;1.67;;;1.53;;
9424;SDS011;17139;52.140;11.636;2022-11-04T08:19:31;1.30;;;1.30;;
9424;SDS011;17139;52.140;11.636;2022-11-04T08:21:58;1.60;;;1.60;;
9424;SDS011;17139;52.140;11.636;2022-11-04T08:24:25;1.30;;;1.30;;
9424;SDS011;17139;52.140;11.636;2022-11-04T08:26:52;1.40;;;1.40;;
9424;SDS011;17139;52.140;11.636;2022-11-04T08:29:19;1.40;;;1.40;;
9424;SDS011;17139;52.140;11.636;2022-11-04T08:31:46;1.57;;;1.13;;
9424;SDS011;17139;52.140;11.636;2022-11-04T08:34:13;1.17;;;1.17;;
9424;SDS011;17139;52.140;11.636;2022-11-04T08:36:43;1.27;;;1.27;;
9424;SDS011;17139;52.140;11.636;2022-11-04T08:39:11;1.10;;;1.10;;
9424;SDS011;17139;52.140;11.636;2022-11-04T08:41:39;1.17;;;1.07;;
9424;SDS011;17139;52.140;11.636;2022-11-04T08:44:10;1.00;;;1.00;;
9424;SDS011;17139;52.140;11.636;2022-11-04T08:46:38;1.20;;;1.10;;
9424;SDS011;17139;52.140;11.636;2022-11-04T08:49:06;0.90;;;0.90;;
9424;SDS011;17139;52.140;11.636;2022-11-04T08:51:35;0.80;;;0.80;;
9424;SDS011;17139;52.140;11.636;2022-11-04T08:54:04;0.97;;;0.97;;
9424;SDS011;17139;52.140;11.636;2022-11-04T08:56:32;1.00;;;1.00;;
9424;SDS011;17139;52.140;11.636;2022-11-04T08:59:01;0.80;;;0.80;;
9424;SDS011;17139;52.140;11.636;2022-11-04T09:01:29;0.97;;;0.97;;
9424;SDS011;17139;52.140;11.636;2022-11-04T09:03:58;1.00;;;1.00;;
9424;SDS011;17139;52.140;11.636;2022-11-04T09:06:26;5.00;;;1.00;;
9424;SDS011;17139;52.140;11.636;2022-11-04T09:08:54;1.33;;;1.20;;
9424;SDS011;17139;52.140;11.636;2022-11-04T09:11:29;1.00;;;1.00;;
9424;SDS011;17139;52.140;11.636;2022-11-04T09:13:57;0.80;;;0.80;;
9424;SDS011;17139;52.140;11.636;2022-11-04T09:16:26;0.88;;;0.88;;
9424;SDS011;17139;52.140;11.636;2022-11-04T09:18:54;0.93;;;0.93;;
9424;SDS011;17139;52.140;11.636;2022-11-04T09:21:23;2.13;;;1.00;;
9424;SDS011;17139;52.140;11.636;2022-11-04T09:23:50;1.15;;;0.65;;
9424;SDS011;17139;52.140;11.636;2022-11-04T09:26:17;1.20;;;1.20;;
9424;SDS011;17139;52.140;11.636;2022-11-04T09:28:46;0.90;;;0.90;;
9424;SDS011;17139;52.140;11.636;2022-11-04T09:31:15;0.90;;;0.90;;
9424;SDS011;17139;52.140;11.636;2022-11-04T09:33:43;1.30;;;1.20;;
9424;SDS011;17139;52.140;11.636;2022-11-04T09:36:10;3.93;;;1.07;;
9424;SDS011;17139;52.140;11.636;2022-11-04T09:38:39;0.77;;;0.77;;
9424;SDS011;17139;52.140;11.636;2022-11-04T09:41:08;0.80;;;0.80;;
9424;SDS011;17139;52.140;11.636;2022-11-04T09:43:52;1.10;;;1.10;;
9424;SDS011;17139;52.140;11.636;2022-11-04T09:46:25;1.10;;;1.10;;
9424;SDS011;17139;52.140;11.636;2022-11-04T09:48:54;1.10;;;1.00;;
9424;SDS011;17139;52.140;11.636;2022-11-04T09:51:23;1.40;;;1.35;;
9424;SDS011;17139;52.140;11.636;2022-11-04T09:53:53;1.23;;;1.23;;
9424;SDS011;17139;52.140;11.636;2022-11-04T09:56:24;1.10;;;1.10;;
9424;SDS011;17139;52.140;11.636;2022-11-04T09:58:58;0.90;;;0.90;;
9424;SDS011;17139;52.140;11.636;2022-11-04T10:01:30;2.13;;;1.38;;
9424;SDS011;17139;52.140;11.636;2022-11-04T10:04:14;1.00;;;1.00;;
9424;SDS011;17139;52.140;11.636;2022-11-04T10:06:54;0.90;;;0.90;;
9424;SDS011;17139;52.140;11.636;2022-11-04T10:09:37;1.17;;;1.08;;
9424;SDS011;17139;52.140;11.636;2022-11-04T10:12:16;0.90;;;0.90;;
9424;SDS011;17139;52.140;11.636;2022-11-04T10:14:58;1.13;;;1.05;;
9424;SDS011;17139;52.140;11.636;2022-11-04T10:17:48;0.90;;;0.90;;
9424;SDS011;17139;52.140;11.636;2022-11-04T10:20:30;0.90;;;0.90;;
9424;SDS011;17139;52.140;11.636;2022-11-04T10:23:18;0.80;;;0.80;;
9424;SDS011;17139;52.140;11.636;2022-11-04T10:25:48;1.38;;;1.27;;
9424;SDS011;17139;52.140;11.636;2022-11-04T10:28:20;1.00;;;1.00;;
9424;SDS011;17139;52.140;11.636;2022-11-04T10:30:52;1.60;;;1.27;;
9424;SDS011;17139;52.140;11.636;2022-11-04T10:33:22;1.23;;;1.17;;
9424;SDS011;17139;52.140;11.636;2022-11-04T10:35:55;1.58;;;1.20;;
9424;SDS011;17139;52.140;11.636;2022-11-04T10:38:28;3.03;;;1.75;;
9424;SDS011;17139;52.140;11.636;2022-11-04T10:40:59;1.10;;;1.10;;
9424;SDS011;17139;52.140;11.636;2022-11-04T10:43:27;1.40;;;1.30;;
9424;SDS011;17139;52.140;11.636;2022-11-04T10:46:02;1.05;;;1.05;;
9424;SDS011;17139;52.140;11.636;2022-11-04T10:48:44;1.20;;;1.20;;
9424;SDS011;17139;52.140;11.636;2022-11-04T10:51:16;1.13;;;1.10;;
9424;SDS011;17139;52.140;11.636;2022-11-04T10:53:46;1.20;;;1.20;;
9424;SDS011;17139;52.140;11.636;2022-11-04T10:56:16;1.05;;;1.05;;
9424;SDS011;17139;52.140;11.636;2022-11-04T10:58:47;2.03;;;1.20;;
9424;SDS011;17139;52.140;11.636;2022-11-04T11:01:23;1.88;;;1.52;;
9424;SDS011;17139;52.140;11.636;2022-11-04T11:03:52;1.10;;;1.10;;
9424;SDS011;17139;52.140;11.636;2022-11-04T11:06:21;0.90;;;0.90;;
9424;SDS011;17139;52.140;11.636;2022-11-04T11:08:51;1.00;;;0.93;;
9424;SDS011;17139;52.140;11.636;2022-11-04T11:11:33;1.30;;;1.30;;
9424;SDS011;17139;52.140;11.636;2022-11-04T11:14:03;1.63;;;1.30;;
9424;SDS011;17139;52.140;11.636;2022-11-04T11:16:31;1.55;;;1.45;;
9424;SDS011;17139;52.140;11.636;2022-11-04T11:19:07;1.40;;;1.30;;
9424;SDS011;17139;52.140;11.636;2022-11-04T11:21:41;1.70;;;1.60;;
9424;SDS011;17139;52.140;11.636;2022-11-04T11:24:13;2.45;;;1.75;;
9424;SDS011;17139;52.140;11.636;2022-11-04T11:26:42;4.72;;;1.08;;
9424;SDS011;17139;52.140;11.636;2022-11-04T11:29:14;1.13;;;1.13;;
9424;SDS011;17139;52.140;11.636;2022-11-04T11:31:49;2.40;;;1.45;;
9424;SDS011;17139;52.140;11.636;2022-11-04T11:34:18;0.82;;;0.82;;
9424;SDS011;17139;52.140;11.636;2022-11-04T11:36:50;1.08;;;1.08;;
9424;SDS011;17139;52.140;11.636;2022-11-04T11:39:19;1.25;;;1.25;;
9424;SDS011;17139;52.140;11.636;2022-11-04T11:41:48;0.98;;;0.98;;
9424;SDS011;17139;52.140;11.636;2022-11-04T11:44:19;1.15;;;1.05;;
9424;SDS011;17139;52.140;11.636;2022-11-04T11:46:57;1.40;;;1.30;;
9424;SDS011;17139;52.140;11.636;2022-11-04T11:49:27;2.58;;;1.52;;
9424;SDS011;17139;52.140;11.636;2022-11-04T11:54:49;1.70;;;1.60;;
9424;SDS011;17139;52.140;11.636;2022-11-04T11:57:28;1.73;;;1.70;;
9424;SDS011;17139;52.140;11.636;2022-11-04T12:00:03;1.60;;;1.05;;
9424;SDS011;17139;52.140;11.636;2022-11-04T12:02:39;2.60;;;1.77;;
9424;SDS011;17139;52.140;11.636;2022-11-04T12:05:11;3.72;;;1.20;;
9424;SDS011;17139;52.140;11.636;2022-11-04T12:07:42;2.00;;;1.35;;
9424;SDS011;17139;52.140;11.636;2022-11-04T12:10:16;1.30;;;1.30;;
9424;SDS011;17139;52.140;11.636;2022-11-04T12:12:55;1.38;;;1.38;;
9424;SDS011;17139;52.140;11.636;2022-11-04T12:15:44;1.40;;;1.40;;
9424;SDS011;17139;52.140;11.636;2022-11-04T12:18:27;3.50;;;1.58;;
9424;SDS011;17139;52.140;11.636;2022-11-04T12:21:11;2.10;;;1.90;;
9424;SDS011;17139;52.140;11.636;2022-11-04T12:23:43;1.60;;;1.60;;
9424;SDS011;17139;52.140;11.636;2022-11-04T12:26:19;1.50;;;1.40;;
9424;SDS011;17139;52.140;11.636;2022-11-04T12:29:00;1.95;;;1.33;;
9424;SDS011;17139;52.140;11.636;2022-11-04T12:31:36;1.55;;;1.55;;
9424;SDS011;17139;52.140;11.636;2022-11-04T12:34:15;1.55;;;1.55;;
9424;SDS011;17139;52.140;11.636;2022-11-04T12:36:55;1.77;;;1.67;;
9424;SDS011;17139;52.140;11.636;2022-11-04T12:39:46;1.02;;;1.02;;
9424;SDS011;17139;52.140;11.636;2022-11-04T12:42:23;3.30;;;1.98;;
9424;SDS011;17139;52.140;11.636;2022-11-04T12:45:04;1.65;;;1.55;;
9424;SDS011;17139;52.140;11.636;2022-11-04T12:47:43;2.35;;;2.25;;
9424;SDS011;17139;52.140;11.636;2022-11-04T12:50:31;1.83;;;1.73;;
9424;SDS011;17139;52.140;11.636;2022-11-04T12:53:33;1.42;;;1.35;;
9424;SDS011;17139;52.140;11.636;2022-11-04T12:56:21;2.58;;;1.60;;
9424;SDS011;17139;52.140;11.636;2022-11-04T12:58:58;2.75;;;1.40;;
9424;SDS011;17139;52.140;11.636;2022-11-04T13:01:43;1.80;;;1.70;;
9424;SDS011;17139;52.140;11.636;2022-11-04T13:04:14;2.07;;;1.97;;
9424;SDS011;17139;52.140;11.636;2022-11-04T13:06:47;1.40;;;1.40;;
9424;SDS011;17139;52.140;11.636;2022-11-04T13:09:19;2.10;;;1.90;;
9424;SDS011;17139;52.140;11.636;2022-11-04T13:11:59;1.75;;;1.65;;
9424;SDS011;17139;52.140;11.636;2022-11-04T13:14:33;1.40;;;1.40;;
9424;SDS011;17139;52.140;11.636;2022-11-04T13:17:06;2.03;;;1.92;;
9424;SDS011;17139;52.140;11.636;2022-11-04T13:19:37;6.43;;;1.73;;
9424;SDS011;17139;52.140;11.636;2022-11-04T13:22:12;1.38;;;1.38;;
9424;SDS011;17139;52.140;11.636;2022-11-04T13:24:45;2.20;;;1.98;;
9424;SDS011;17139;52.140;11.636;2022-11-04T13:27:15;2.78;;;1.80;;
9424;SDS011;17139;52.140;11.636;2022-11-04T13:29:47;1.60;;;1.50;;
9424;SDS011;17139;52.140;11.636;2022-11-04T13:32:18;1.40;;;1.40;;
9424;SDS011;17139;52.140;11.636;2022-11-04T13:34:52;1.75;;;1.65;;
9424;SDS011;17139;52.140;11.636;2022-11-04T13:37:25;1.60;;;1.60;;
9424;SDS011;17139;52.140;11.636;2022-11-04T13:39:56;1.73;;;1.60;;
9424;SDS011;17139;52.140;11.636;2022-11-04T13:45:17;1.42;;;1.33;;
9424;SDS011;17139;52.140;11.636;2022-11-04T13:47:46;1.30;;;1.30;;
9424;SDS011;17139;52.140;11.636;2022-11-04T13:53:00;0.73;;;0.73;;
9424;SDS011;17139;52.140;11.636;2022-11-04T13:55:28;1.20;;;1.20;;
9424;SDS011;17139;52.140;11.636;2022-11-04T13:57:56;0.95;;;0.95;;
9424;SDS011;17139;52.140;11.636;2022-11-04T14:00:25;1.50;;;1.40;;
9424;SDS011;17139;52.140;11.636;2022-11-04T14:02:54;1.00;;;1.00;;
9424;SDS011;17139;52.140;11.636;2022-11-04T14:08:13;2.47;;;1.00;;
9424;SDS011;17139;52.140;11.636;2022-11-04T14:10:45;1.15;;;1.15;;
9424;SDS011;17139;52.140;11.636;2022-11-04T14:13:40;0.98;;;0.98;;
9424;SDS011;17139;52.140;11.636;2022-11-04T14:16:36;0.80;;;0.80;;
9424;SDS011;17139;52.140;11.636;2022-11-04T14:22:19;1.20;;;1.20;;
9424;SDS011;17139;52.140;11.636;2022-11-04T14:24:54;2.05;;;1.45;;
9424;SDS011;17139;52.140;11.636;2022-11-04T14:27:24;1.65;;;1.55;;
9424;SDS011;17139;52.140;11.636;2022-11-04T14:29:55;1.42;;;1.38;;
9424;SDS011;17139;52.140;11.636;2022-11-04T14:32:25;2.15;;;2.05;;
9424;SDS011;17139;52.140;11.636;2022-11-04T14:34:57;2.60;;;1.98;;
9424;SDS011;17139;52.140;11.636;2022-11-04T14:37:28;1.33;;;1.23;;
9424;SDS011;17139;52.140;11.636;2022-11-04T14:39:59;1.50;;;1.50;;
9424;SDS011;17139;52.140;11.636;2022-11-04T14:42:42;4.53;;;1.77;;
9424;SDS011;17139;52.140;11.636;2022-11-04T14:45:14;1.25;;;1.13;;
9424;SDS011;17139;52.140;11.636;2022-11-04T14:47:45;1.40;;;1.40;;
9424;SDS011;17139;52.140;11.636;2022-11-04T14:50:17;1.20;;;1.20;;
9424;SDS011;17139;52.140;11.636;2022-11-04T14:52:47;1.33;;;1.33;;
9424;SDS011;17139;52.140;11.636;2022-11-04T14:55:20;3.65;;;1.30;;
9424;SDS011;17139;52.140;11.636;2022-11-04T14:57:49;1.50;;;1.40;;
9424;SDS011;17139;52.140;11.636;2022-11-04T15:00:28;1.30;;;1.10;;
9424;SDS011;17139;52.140;11.636;2022-11-04T15:02:58;2.40;;;1.63;;
9424;SDS011;17139;52.140;11.636;2022-11-04T15:05:29;1.42;;;1.42;;
9424;SDS011;17139;52.140;11.636;2022-11-04T15:08:00;1.50;;;1.42;;
9424;SDS011;17139;52.140;11.636;2022-11-04T15:10:30;1.35;;;1.35;;
9424;SDS011;17139;52.140;11.636;2022-11-04T15:12:57;2.28;;;1.88;;
9424;SDS011;17139;52.140;11.636;2022-11-04T15:15:30;1.10;;;1.10;;
9424;SDS011;17139;52.140;11.636;2022-11-04T15:18:02;2.00;;;1.90;;
9424;SDS011;17139;52.140;11.636;2022-11-04T15:20:34;1.40;;;1.40;;
9424;SDS011;17139;52.140;11.636;2022-11-04T15:23:05;1.13;;;1.13;;
9424;SDS011;17139;52.140;11.636;2022-11-04T15:25:43;1.42;;;1.42;;
9424;SDS011;17139;52.140;11.636;2022-11-04T15:28:15;1.70;;;1.60;;
9424;SDS011;17139;52.140;11.636;2022-11-04T15:30:48;1.50;;;1.50;;
9424;SDS011;17139;52.140;11.636;2022-11-04T15:33:27;1.92;;;1.90;;